Tyre, New York
Current Conditions -  °F | °C
As of 6:53 PM on Friday 21 Nov 2014 (Local Time) from KPEO Reporting Station
Scattered Clouds Scattered Clouds  
Wind Chill: -10°   Ceiling: Unl
Heat Index: -4°   Visibility: 10mi
Dew Point: -9°   Wind: 14mph
Humidity: 66%   Direction: 240°WSW
Pressure: 30.41"   Gusts: NA
Location:  42.9691°N, 76.7961°W
Report Text: KPEO 212353Z AUTO 24012KT 10SM SCT034 M04/M09 A3041 RMK AO2 SLP313 T10391094 11017 21044 51009
Loading
Personal Weather Stations






























Interactive Weather Map New forecast layout! Learn more

10-Day Weather Forecast

Advertisements
Track Severe Weather on mobile